< Cyclone 197315 1980 Season Cyclone 198501 >
Cyclone 198014 (DORIS-GLORIA)
General InformationDetailed Track InformationTrack Information on Google Maps || ResourceGoogle EarthGE AnimationAtom FeedGeoJSON
Detalied Best Track Wind (Time Zone = UTC)
Year Month Day Hour Lat. Long. Wind (kt) Gust (kt) Direc. of Major Storm Axis Radius of Major Storm Axis (nm) Radius of Minor Storm Axis (nm) Direc. of Major Gale Axis Radius of Major Gale Axis (nm) Radius of Minor Gale Axis (nm) Image
1980 3 14 00 -9.9 133.8 29 -1 symmetric - - symmetric - - --
1980 3 14 06 -9.8 134.0 29 -1 symmetric - - symmetric - - --
1980 3 14 12 -9.7 134.2 29 -1 symmetric - - symmetric - - --
1980 3 14 18 -9.7 134.5 29 -1 symmetric - - symmetric - - --
1980 3 15 00 -9.7 135.0 29 -1 symmetric - - symmetric - - --
1980 3 15 06 -9.9 135.7 29 -1 symmetric - - symmetric - - --
1980 3 15 12 -10.2 136.3 33 -1 symmetric - - symmetric - - --
1980 3 15 18 -10.6 136.6 37 -1 symmetric - - symmetric - - --
1980 3 16 00 -11.0 137.0 43 -1 symmetric - - symmetric - - --
1980 3 16 06 -11.4 137.3 43 -1 symmetric - - symmetric - - --
1980 3 16 12 -11.9 137.7 43 -1 symmetric - - symmetric - - --
1980 3 16 18 -12.5 137.7 37 -1 symmetric - - symmetric - - --
1980 3 17 00 -13.0 137.4 37 -1 symmetric - - symmetric - - --
1980 3 17 06 -13.2 136.9 37 -1 symmetric - - symmetric - - --
1980 3 17 12 -13.3 136.5 33 -1 symmetric - - symmetric - - --
1980 3 17 18 -13.4 136.2 29 -1 symmetric - - symmetric - - --
1980 3 18 00 -13.5 135.9 29 -1 symmetric - - symmetric - - --
1980 3 18 06 -13.6 135.5 29 -1 symmetric - - symmetric - - --
1980 3 18 12 -13.6 135.1 29 -1 symmetric - - symmetric - - --
1980 3 18 18 -13.6 134.7 29 -1 symmetric - - symmetric - - --
1980 3 19 00 -13.5 134.2 29 -1 symmetric - - symmetric - - --
1980 3 20 00 -13.6 129.4 0 -1 symmetric - - symmetric - - --
1980 3 20 06 -14.0 127.4 0 -1 symmetric - - symmetric - - --
1980 3 20 12 -14.6 125.7 0 -1 symmetric - - symmetric - - --
1980 3 20 18 -15.2 124.2 0 -1 symmetric - - symmetric - - --
1980 3 21 00 -15.7 123.1 0 -1 symmetric - - symmetric - - --
1980 3 21 06 -16.1 122.2 0 -1 symmetric - - symmetric - - --
1980 3 21 12 -16.3 121.1 0 -1 symmetric - - symmetric - - --
1980 3 21 18 -16.5 120.0 0 -1 symmetric - - symmetric - - --
1980 3 22 00 -16.8 118.9 0 -1 symmetric - - symmetric - - --
1980 3 22 06 -17.0 117.6 0 -1 symmetric - - symmetric - - --
1980 3 22 12 -17.2 115.7 0 -1 symmetric - - symmetric - - --
1980 3 22 18 -17.1 113.3 0 -1 symmetric - - symmetric - - --
1980 3 23 00 -16.9 111.0 0 -1 symmetric - - symmetric - - --
1980 3 23 06 -16.8 109.5 0 -1 symmetric - - symmetric - - --
1980 3 23 12 -16.9 108.3 0 -1 symmetric - - symmetric - - --
1980 3 23 18 -17.1 106.7 0 -1 symmetric - - symmetric - - --
1980 3 24 00 -17.0 105.1 0 -1 symmetric - - symmetric - - --
1980 3 24 06 -16.8 104.1 0 -1 symmetric - - symmetric - - --
1980 3 24 12 -16.7 103.2 0 -1 symmetric - - symmetric - - --
1980 3 24 18 -16.7 102.4 0 -1 symmetric - - symmetric - - --
1980 3 25 00 -16.9 101.8 0 -1 symmetric - - symmetric - - --
1980 3 25 06 -17.0 101.3 0 -1 symmetric - - symmetric - - --
1980 3 25 12 -17.3 100.9 0 -1 symmetric - - symmetric - - --
1980 3 25 18 -17.9 100.3 0 -1 symmetric - - symmetric - - --
1980 3 26 00 -18.6 99.8 0 -1 symmetric - - symmetric - - --
1980 3 26 06 -19.3 99.5 0 -1 symmetric - - symmetric - - --
1980 3 26 12 -20.2 99.4 0 -1 symmetric - - symmetric - - --
1980 3 26 18 -21.3 99.4 0 -1 symmetric - - symmetric - - --
1980 3 27 00 -22.5 99.6 0 -1 symmetric - - symmetric - - --
1980 3 27 06 -23.9 100.0 0 -1 symmetric - - symmetric - - --
1980 3 27 12 -25.7 100.5 0 -1 symmetric - - symmetric - - --
1980 3 27 18 -27.6 101.1 0 -1 symmetric - - symmetric - - --
1980 3 28 00 -29.3 101.8 0 -1 symmetric - - symmetric - - --
1980 3 28 06 -31.1 102.8 0 -1 symmetric - - symmetric - - --
1980 3 28 12 -32.8 104.0 0 -1 symmetric - - symmetric - - --
1980 3 28 18 -34.5 105.6 0 -1 symmetric - - symmetric - - --
1980 3 29 00 -36.4 107.6 0 -1 symmetric - - symmetric - - --
< Cyclone 197315 1980 Season Cyclone 198501 >

Help